»·PEaware :: N1927H KSBA-KBUR

N1927H :: KSBA-KBUR

FLIGHT INFORMATION

Flight Status: Arrived
Operator: Privately registered:
United States
More flights under this callsign
Pilot: Nick K. (20390)
Aircraft: PIPER PA-28R-201 ARROW
(P28R)
More flights by this aircraft type
Origin: KSBA Santa Barbara Mun
United States
Destination: KBUR Bob Hope-Burbank
United States
More flights between these airports :: More routes between these airports
Route: +
File this flight plan on PilotEdge
Remarks:
Altitude:
(Current/Filed)
0ft
Speed:
(Current/Filed)
0kts
Departed: 12-Jun-19 10:01 AM
Arrived: 12-Jun-19 11:13 AM
Distance/Time
Traveled:
74nm/1:11
Distance/Time
To Go:
Arrived

Flight Plot

Page will automatically refresh every two minutes.


Map Options




Map Legend


Flown Route
Filed Route
Departure Airport
Arrival Airport
Navaid (VOR, NDB)
Fix

Horizontal Profiles

Position Reports

Time Latitude Longitude Heading Altitude Ground
Speed
12-Jun-19 09:45 34.422663 -119.835593 339 15ft 0kts
12-Jun-19 09:46 34.422663 -119.835593 339 15ft 0kts
12-Jun-19 09:47 34.422663 -119.835593 339 15ft 0kts
12-Jun-19 09:48 34.422663 -119.835593 339 15ft 0kts
12-Jun-19 09:49 34.422663 -119.835593 339 15ft 0kts
12-Jun-19 09:50 34.422663 -119.835593 339 15ft 0kts
12-Jun-19 09:51 34.422805 -119.837159 310 15ft 7kts
12-Jun-19 09:52 34.424657 -119.837725 347 15ft 12kts
12-Jun-19 09:53 34.426509 -119.838301 346 15ft 0kts
12-Jun-19 09:54 34.426798 -119.838383 344 15ft 6kts
12-Jun-19 09:55 34.427643 -119.838708 318 15ft 4kts
12-Jun-19 09:56 34.429887 -119.839341 341 15ft 12kts
12-Jun-19 09:57 34.430583 -119.839917 277 15ft 0kts
12-Jun-19 09:58 34.430584 -119.839921 277 15ft 0kts
12-Jun-19 09:59 34.430236 -119.840192 165 15ft 4kts
12-Jun-19 10:00 34.411328 -119.834764 162 712ft 94kts
12-Jun-19 10:01 34.390069 -119.817904 156 1986ft 96kts
12-Jun-19 10:02 34.365906 -119.807323 164 1819ft 96kts
12-Jun-19 10:03 34.350298 -119.802246 158 1464ft 96kts
12-Jun-19 10:04 34.350298 -119.802246 158 1464ft 96kts
12-Jun-19 10:05 34.350298 -119.802246 158 1464ft 96kts
12-Jun-19 10:06 34.350298 -119.802246 158 1464ft 96kts
12-Jun-19 10:07 34.350298 -119.802246 158 1464ft 96kts
12-Jun-19 10:08 34.350298 -119.802246 158 1464ft 96kts
12-Jun-19 10:09 34.350298 -119.802246 158 1464ft 96kts
12-Jun-19 10:10 34.422663 -119.835593 340 15ft 0kts
12-Jun-19 10:11 34.422664 -119.835593 340 15ft 0kts
12-Jun-19 10:12 34.422678 -119.835599 339 15ft 0kts
12-Jun-19 10:13 34.422678 -119.835599 339 15ft 0kts
12-Jun-19 10:14 34.422678 -119.835599 339 15ft 0kts
12-Jun-19 10:15 34.422678 -119.835599 339 15ft 0kts
12-Jun-19 10:16 34.422678 -119.835599 339 15ft 0kts
12-Jun-19 10:17 34.422678 -119.835599 339 15ft 0kts
12-Jun-19 10:18 34.422678 -119.835599 339 15ft 0kts
12-Jun-19 10:19 34.422678 -119.835599 339 15ft 0kts
12-Jun-19 10:20 34.422678 -119.835599 339 15ft 0kts
12-Jun-19 10:21 34.422678 -119.835599 339 15ft 0kts
12-Jun-19 10:22 34.422678 -119.835599 339 15ft 0kts
12-Jun-19 10:23 34.422711 -119.836746 262 15ft 5kts
12-Jun-19 10:24 34.423909 -119.837493 343 15ft 5kts
12-Jun-19 10:25 34.426353 -119.838244 347 15ft 9kts
12-Jun-19 10:26 34.427793 -119.838669 351 15ft 8kts
12-Jun-19 10:27 34.429650 -119.839258 347 15ft 5kts
12-Jun-19 10:28 34.430670 -119.839829 267 15ft 2kts
12-Jun-19 10:29 34.430636 -119.840003 250 15ft 2kts
12-Jun-19 10:30 34.417949 -119.836747 162 364ft 87kts
12-Jun-19 10:31 34.395066 -119.829102 166 1306ft 84kts
12-Jun-19 10:32 34.383165 -119.810359 81 2111ft 82kts
12-Jun-19 10:33 34.386178 -119.780590 82 2854ft 91kts
12-Jun-19 10:34 34.390437 -119.749875 82 3654ft 93kts
12-Jun-19 10:35 34.392108 -119.715171 84 4215ft 113kts
12-Jun-19 10:36 34.396206 -119.676335 89 4562ft 116kts
12-Jun-19 10:37 34.397946 -119.637679 85 4918ft 115kts
12-Jun-19 10:38 34.397405 -119.599404 98 5257ft 115kts
12-Jun-19 10:39 34.392084 -119.560509 107 5319ft 126kts
12-Jun-19 10:40 34.388065 -119.517492 92 5284ft 129kts
12-Jun-19 10:41 34.376282 -119.478498 128 5338ft 122kts
12-Jun-19 10:42 34.365299 -119.440718 84 5417ft 126kts
12-Jun-19 10:43 34.372563 -119.398764 85 5485ft 127kts
12-Jun-19 10:45 34.379578 -119.356935 90 5537ft 126kts
12-Jun-19 10:46 34.378931 -119.314501 101 5615ft 125kts
12-Jun-19 10:47 34.373784 -119.272283 88 5625ft 128kts
12-Jun-19 10:48 34.377217 -119.228537 86 5580ft 131kts
12-Jun-19 10:49 34.373977 -119.184788 104 5450ft 134kts
12-Jun-19 10:50 34.359192 -119.143730 116 5236ft 131kts
12-Jun-19 10:51 34.355943 -119.100766 78 5243ft 129kts
12-Jun-19 10:52 34.351644 -119.059015 105 5318ft 126kts
12-Jun-19 10:53 34.336171 -119.021127 100 5308ft 128kts
12-Jun-19 10:54 34.327788 -118.979364 112 5264ft 129kts
12-Jun-19 10:55 34.309470 -118.943390 128 5297ft 126kts
12-Jun-19 10:56 34.294917 -118.915258 120 5307ft 126kts
12-Jun-19 10:57 34.290732 -118.905940 115 5264ft 132kts
12-Jun-19 10:58 34.281212 -118.863119 102 5079ft 123kts
12-Jun-19 10:59 34.269820 -118.826192 117 4620ft 122kts
12-Jun-19 11:00 34.259603 -118.790431 90 5197ft 114kts
12-Jun-19 11:01 34.258515 -118.752026 94 5475ft 118kts
12-Jun-19 11:02 34.255091 -118.709828 100 5184ft 129kts
12-Jun-19 11:03 34.243199 -118.668420 101 4911ft 129kts
12-Jun-19 11:04 34.246587 -118.625590 78 4651ft 129kts
12-Jun-19 11:04 34.243206 -118.590500 101 4596ft 120kts
12-Jun-19 11:05 34.231431 -118.550421 112 4570ft 128kts
12-Jun-19 11:07 34.211219 -118.506095 129 4668ft 117kts
12-Jun-19 11:07 34.192861 -118.480330 125 4760ft 126kts
12-Jun-19 11:08 34.170188 -118.445832 129 4543ft 134kts
12-Jun-19 11:10 34.186899 -118.416299 356 2875ft 126kts
12-Jun-19 11:10 34.197254 -118.392575 80 1575ft 92kts
12-Jun-19 11:11 34.197859 -118.367075 86 780ft 54kts
12-Jun-19 11:12 34.198361 -118.364587 7 778ft 0kts
12-Jun-19 11:13 34.198390 -118.364582 7 778ft 1kts
12-Jun-19 11:14 34.199034 -118.364277 46 778ft 6kts
12-Jun-19 11:15 34.199781 -118.364551 347 778ft 2kts
12-Jun-19 11:16 34.199984 -118.364055 171 778ft 0kts
12-Jun-19 11:17 34.199984 -118.364055 171 778ft 0kts
12-Jun-19 11:18 34.199984 -118.364055 171 778ft 0kts
12-Jun-19 11:19 34.199984 -118.364055 171 778ft 0kts
12-Jun-19 11:20 34.199984 -118.364055 171 778ft 0kts
12-Jun-19 11:21 34.199984 -118.364055 171 778ft 0kts
12-Jun-19 11:22 34.199984 -118.364055 171 778ft 0kts
12-Jun-19 11:23 34.199984 -118.364055 171 778ft 0kts
12-Jun-19 11:24 34.199984 -118.364055 171 778ft 0kts
12-Jun-19 11:25 34.199984 -118.364055 171 778ft 0kts
12-Jun-19 11:26 34.199984 -118.364055 171 778ft 0kts

Navigation Log

Ident Type
Flight plan parsing failed, navigation log unavailable